Flight Number: AVA1065 Duration: 1:15
Departure: Prague Vaclav Havel (LKPR) at 05:45 Distance: 254.446 Nm
Arrival: Budapest Ferihegy (LHBP) at 07:00 Equipment: ATR72

Weather Information
Praha / Ruzyne, Czech Republic (LKPR) 50-06N 014-15E 365M Jun 19, 2024 - 09:30 AM EDT / 2024.06.19 1330 UTC
Wind: from the N (350 degrees) at 9 MPH (8 KT):0
Visibility: greater than 7 mile(s):0
Sky conditions: mostly clear Temperature: 73 F (23 C) Dew Point: 62 F (17 C) Relative Humidity: 68% Pressure (altimeter): 29.94 in. Hg (1014 hPa)
ob: LKPR 191330Z 35008KT 9999 FEW035 23/17 Q1014 NOSIG cycle: 13
Sunrise: 02:57 Sunset: 19:11 (UTC)

Budapest / Ferihegy, Hungary (LHBP) 47-26N 019-16E 185M Jun 19, 2024 - 09:30 AM EDT / 2024.06.19 1330 UTC
Wind: from the SSW (200 degrees) at 10 MPH (9 KT) (direction variable):0
Visibility: greater than 7 mile(s):0 Temperature: 89 F (32 C) Dew Point: 60 F (16 C) Relative Humidity: 38% Pressure (altimeter): 29.91 in. Hg (1013 hPa)
ob: LHBP 191330Z 20009KT 160V240 CAVOK 32/16 Q1013 NOSIG cycle: 13
Sunrise: 02:50 Sunset: 18:39 (UTC)

TAF:2024/06/19 12:27 TAF TAF LHBP 191115Z 1912/2012 21012G22KT CAVOK BECMG 1914/1917 24006KT TEMPO 1918/2001 17003KT BECMG 2001/2004 33007KT TEMPO 2008/2012 VRB03KT

Previous Pireps for this route
Date Flightnr Aircraft Flight time Fuel used Landing rate On time
2017-07-24AVA1065ATR721.2016000Yes
(pireps marked green are flown by you)

Route map